createdAt,value
2022-10-16T00:00:55.151Z,99195.78
2022-10-16T00:03:25.383Z,99199.38
2022-10-16T00:05:54.850Z,99207.59
2022-10-16T00:08:21.615Z,99198.38
2022-10-16T00:10:48.315Z,99197.84
2022-10-16T00:13:15.164Z,99194.81
2022-10-16T00:15:44.262Z,99195.00
2022-10-16T00:18:11.389Z,99198.38
2022-10-16T00:20:38.234Z,99197.38
2022-10-16T00:23:06.275Z,99184.53
2022-10-16T00:25:33.983Z,99198.22
2022-10-16T00:28:02.054Z,99211.88
2022-10-16T00:30:29.143Z,99211.88
2022-10-16T00:32:56.514Z,99181.16
2022-10-16T00:35:23.366Z,99204.97
2022-10-16T00:37:50.569Z,99207.66
2022-10-16T00:40:17.655Z,99213.19
2022-10-16T00:42:44.367Z,99203.91
2022-10-16T00:45:11.904Z,99207.94
2022-10-16T00:47:42.585Z,99224.47
2022-10-16T00:50:14.819Z,99221.56
2022-10-16T00:52:46.841Z,99225.28
2022-10-16T00:55:14.090Z,99236.06
2022-10-16T00:57:41.055Z,99201.78
2022-10-16T01:00:10.688Z,99223.72
2022-10-16T01:02:37.709Z,99236.75
2022-10-16T01:05:05.805Z,99232.94
2022-10-16T01:07:58.207Z,99231.41
2022-10-16T01:10:48.502Z,99229.00
2022-10-16T01:13:50.694Z,99241.94
2022-10-16T01:16:34.777Z,99234.91
2022-10-16T01:19:13.264Z,99251.06
2022-10-16T01:21:45.250Z,99244.31
2022-10-16T01:24:38.990Z,99241.25
2022-10-16T01:27:22.256Z,99237.41
2022-10-16T01:30:01.095Z,99242.78
2022-10-16T01:33:06.100Z,99244.84
2022-10-16T01:35:39.918Z,99253.28
2022-10-16T01:38:17.326Z,99255.63
2022-10-16T01:40:50.749Z,99240.34
2022-10-16T01:43:22.164Z,99248.13
2022-10-16T01:45:49.569Z,99243.03
2022-10-16T01:48:19.942Z,99241.34
2022-10-16T01:51:05.055Z,99233.06
2022-10-16T01:53:32.826Z,99221.38
2022-10-16T01:56:00.594Z,99219.00
2022-10-16T01:58:31.937Z,99251.81
2022-10-16T02:00:58.829Z,99252.28
2022-10-16T02:03:25.649Z,99260.56
2022-10-16T02:05:57.935Z,99257.88
2022-10-16T02:08:29.258Z,99245.41
2022-10-16T02:10:57.418Z,99254.28
2022-10-16T02:13:46.366Z,99248.44
2022-10-16T02:16:15.195Z,99254.81
2022-10-16T02:18:44.635Z,99255.22
2022-10-16T02:21:26.624Z,99263.00
2022-10-16T02:24:07.406Z,99262.91
2022-10-16T02:26:46.259Z,99264.06
2022-10-16T02:29:17.822Z,99263.69
2022-10-16T02:31:49.187Z,99267.31
2022-10-16T02:34:19.005Z,99233.69
2022-10-16T02:36:49.394Z,99258.66
2022-10-16T02:39:17.566Z,99270.50
2022-10-16T02:41:44.386Z,99238.19
2022-10-16T02:44:11.147Z,99272.09
2022-10-16T02:46:37.847Z,99276.22
2022-10-16T02:49:04.627Z,99273.19
2022-10-16T02:51:31.476Z,99280.59
2022-10-16T02:53:58.177Z,99273.19
2022-10-16T02:56:25.170Z,99273.53
2022-10-16T02:58:51.898Z,99287.34
2022-10-16T03:01:18.583Z,99271.31
2022-10-16T03:03:45.324Z,99275.53
2022-10-16T03:06:12.059Z,99277.75
2022-10-16T03:08:38.794Z,99285.31
2022-10-16T03:11:05.617Z,99281.28
2022-10-16T03:13:32.311Z,99282.28
2022-10-16T03:15:59.016Z,99283.91
2022-10-16T03:18:25.814Z,99295.44
2022-10-16T03:20:52.705Z,99292.91
2022-10-16T03:23:19.389Z,99284.00
2022-10-16T03:25:48.243Z,99281.59
2022-10-16T03:28:15.338Z,99283.28
2022-10-16T03:30:42.025Z,99268.38
2022-10-16T03:33:09.909Z,99279.75
2022-10-16T03:35:36.730Z,99279.53
2022-10-16T03:38:03.785Z,99268.56
2022-10-16T03:40:32.596Z,99272.78
2022-10-16T03:42:59.777Z,99284.59
2022-10-16T03:45:27.324Z,99284.94
2022-10-16T03:47:53.998Z,99279.53
2022-10-16T03:50:20.856Z,99285.47
2022-10-16T03:52:47.683Z,99291.69
2022-10-16T03:55:14.546Z,99276.47
2022-10-16T03:57:41.304Z,99285.56
2022-10-16T04:00:08.729Z,99302.09
2022-10-16T04:02:35.525Z,99296.53
2022-10-16T04:05:02.446Z,99310.84
2022-10-16T04:07:29.807Z,99312.19
2022-10-16T04:09:58.256Z,99302.97
2022-10-16T04:12:25.074Z,99319.47
2022-10-16T04:14:51.829Z,99331.31
2022-10-16T04:17:18.676Z,99326.88
2022-10-16T04:19:45.442Z,99338.25
2022-10-16T04:22:12.239Z,99327.63
2022-10-16T04:24:39.264Z,99336.63
2022-10-16T04:27:05.964Z,99335.00
2022-10-16T04:29:32.702Z,99327.94
2022-10-16T04:31:59.434Z,99320.72
2022-10-16T04:34:26.144Z,99327.47
2022-10-16T04:36:52.875Z,99334.41
2022-10-16T04:39:19.663Z,99339.09
2022-10-16T04:41:46.800Z,99335.47
2022-10-16T04:44:13.525Z,99310.00
2022-10-16T04:46:40.224Z,99320.63
2022-10-16T04:49:07.105Z,99336.63
2022-10-16T04:51:34.044Z,99324.31
2022-10-16T04:54:00.776Z,99330.84
2022-10-16T04:56:27.504Z,99346.47
2022-10-16T04:58:54.354Z,99343.47
2022-10-16T05:01:21.154Z,99348.41
2022-10-16T05:03:47.849Z,99356.91
2022-10-16T05:06:14.677Z,99366.13
2022-10-16T05:08:41.474Z,99335.78
2022-10-16T05:11:08.289Z,99328.78
2022-10-16T05:13:36.128Z,99360.00
2022-10-16T05:16:02.807Z,99357.47
2022-10-16T05:18:29.522Z,99352.69
2022-10-16T05:20:56.291Z,99357.31
2022-10-16T05:23:22.980Z,99359.72
2022-10-16T05:25:59.386Z,99364.41
2022-10-16T05:28:31.457Z,99367.25
2022-10-16T05:30:58.676Z,99372.63
2022-10-16T05:33:26.746Z,99379.56
2022-10-16T05:35:53.473Z,99375.69
2022-10-16T05:38:20.238Z,99352.28
2022-10-16T05:40:57.363Z,99346.31
2022-10-16T05:43:24.268Z,99365.91
2022-10-16T05:45:59.013Z,99333.47
2022-10-16T05:48:26.539Z,99366.28
2022-10-16T05:51:05.717Z,99378.28
2022-10-16T05:53:35.437Z,99381.13
2022-10-16T05:56:03.276Z,99381.66
2022-10-16T05:58:32.527Z,99385.53
2022-10-16T06:01:01.680Z,99393.91
2022-10-16T06:03:29.045Z,99396.53
2022-10-16T06:05:55.923Z,99386.09
2022-10-16T06:08:23.998Z,99398.44
2022-10-16T06:11:01.819Z,99400.91
2022-10-16T06:13:28.585Z,99389.25
2022-10-16T06:15:59.492Z,99413.22
2022-10-16T06:18:27.196Z,99412.38
2022-10-16T06:20:54.871Z,99404.09
2022-10-16T06:23:21.585Z,99413.22
2022-10-16T06:25:49.405Z,99428.75
2022-10-16T06:28:16.994Z,99431.38
2022-10-16T06:30:46.927Z,99412.06
2022-10-16T06:33:13.578Z,99429.22
2022-10-16T06:35:40.347Z,99427.38
2022-10-16T06:38:07.308Z,99441.69
2022-10-16T06:40:34.141Z,99440.06
2022-10-16T06:43:00.841Z,99432.06
2022-10-16T06:45:27.627Z,99439.69
2022-10-16T06:47:54.374Z,99429.53
2022-10-16T06:50:21.112Z,99458.25
2022-10-16T06:52:48.998Z,99453.25
2022-10-16T06:55:16.369Z,99460.00
2022-10-16T06:57:43.077Z,99455.00
2022-10-16T07:00:10.167Z,99452.50
2022-10-16T07:02:36.867Z,99451.63
2022-10-16T07:05:03.881Z,99456.22
2022-10-16T07:07:30.643Z,99466.47
2022-10-16T07:09:57.331Z,99472.09
2022-10-16T07:12:24.330Z,99464.56
2022-10-16T07:14:53.381Z,99466.88
2022-10-16T07:17:20.115Z,99470.56
2022-10-16T07:19:46.844Z,99478.81
2022-10-16T07:22:13.496Z,99470.66
2022-10-16T07:24:49.162Z,99495.06
2022-10-16T07:27:25.078Z,99481.41
2022-10-16T07:29:51.885Z,99477.94
2022-10-16T07:32:19.812Z,99479.31
2022-10-16T07:34:56.972Z,99483.03
2022-10-16T07:37:23.976Z,99477.84
2022-10-16T07:40:01.951Z,99483.00
2022-10-16T07:42:37.841Z,99483.75
2022-10-16T07:45:04.985Z,99479.66
2022-10-16T07:47:31.738Z,99494.69
2022-10-16T07:49:58.445Z,99498.78
2022-10-16T07:52:31.425Z,99483.13
2022-10-16T07:54:58.092Z,99487.91
2022-10-16T07:57:25.142Z,99468.47
2022-10-16T08:00:00.009Z,99482.00
2022-10-16T08:02:26.707Z,99477.69
2022-10-16T08:04:53.366Z,99481.94
2022-10-16T08:07:20.402Z,99492.91
2022-10-16T08:09:51.084Z,99499.38
2022-10-16T08:12:17.849Z,99500.06
2022-10-16T08:14:47.065Z,99458.47
2022-10-16T08:17:15.655Z,99490.59
2022-10-16T08:19:46.259Z,99477.91
2022-10-16T08:24:41.065Z,99509.53
2022-10-16T08:27:10.485Z,99487.91
2022-10-16T08:29:37.424Z,99487.38
2022-10-16T08:32:05.226Z,99479.44
2022-10-16T08:34:32.029Z,99490.94
2022-10-16T08:36:58.846Z,99512.59
2022-10-16T08:39:27.030Z,99504.47
2022-10-16T08:42:10.834Z,99515.63
2022-10-16T08:44:46.786Z,99526.75
2022-10-16T08:47:25.238Z,99511.91
2022-10-16T08:49:55.001Z,99519.81
2022-10-16T08:52:21.625Z,99525.56
2022-10-16T08:54:53.001Z,99521.38
2022-10-16T08:57:25.253Z,99506.47
2022-10-16T08:59:53.648Z,99524.25
2022-10-16T09:02:38.756Z,99530.31
2022-10-16T09:05:39.378Z,99539.44
2022-10-16T09:08:21.257Z,99536.09
2022-10-16T09:11:05.852Z,99536.44
2022-10-16T09:14:13.898Z,99532.47
2022-10-16T09:16:51.409Z,99528.91
2022-10-16T09:19:46.539Z,99533.47
2022-10-16T09:22:18.281Z,99521.63
2022-10-16T09:24:51.530Z,99525.97
2022-10-16T09:27:19.001Z,99503.06
2022-10-16T09:29:45.881Z,99523.38
2022-10-16T09:32:20.432Z,99531.69
2022-10-16T09:34:51.967Z,99515.81
2022-10-16T09:37:22.442Z,99540.38
2022-10-16T09:39:52.094Z,99542.97
2022-10-16T09:42:26.738Z,99546.97
2022-10-16T09:44:54.844Z,99538.00
2022-10-16T09:47:27.448Z,99542.28
2022-10-16T09:50:02.528Z,99542.38
2022-10-16T09:52:31.164Z,99539.44
2022-10-16T09:55:00.440Z,99524.50
2022-10-16T09:57:28.042Z,99546.97
2022-10-16T09:59:59.837Z,99531.91
2022-10-16T10:02:37.975Z,99541.19
2022-10-16T10:05:18.175Z,99533.72
2022-10-16T10:07:48.674Z,99532.28
2022-10-16T10:10:28.108Z,99533.38
2022-10-16T10:12:56.472Z,99539.66
2022-10-16T10:15:35.820Z,99528.47
2022-10-16T10:18:04.400Z,99546.00
2022-10-16T10:20:39.926Z,99538.38
2022-10-16T10:23:24.180Z,99542.47
2022-10-16T10:26:06.303Z,99541.03
2022-10-16T10:28:51.809Z,99519.25
2022-10-16T10:31:27.880Z,99538.97
2022-10-16T10:34:07.171Z,99536.38
2022-10-16T10:36:38.718Z,99531.69
2022-10-16T10:39:08.380Z,99506.44
2022-10-16T10:41:40.792Z,99536.97
2022-10-16T10:44:22.540Z,99537.16
2022-10-16T10:47:02.742Z,99516.50
2022-10-16T10:49:43.286Z,99522.75
2022-10-16T10:52:23.660Z,99506.50
2022-10-16T10:55:21.686Z,99512.03
2022-10-16T10:58:10.044Z,99519.34
2022-10-16T11:00:48.834Z,99508.22
2022-10-16T11:03:48.811Z,99508.00
2022-10-16T11:06:28.149Z,99494.72
2022-10-16T11:09:16.670Z,99499.44
2022-10-16T11:11:54.019Z,99500.69
2022-10-16T11:14:30.424Z,99493.44
2022-10-16T11:17:13.706Z,99476.31
2022-10-16T11:19:52.352Z,99484.28
2022-10-16T11:22:30.973Z,99481.34
2022-10-16T11:25:29.264Z,99471.91
2022-10-16T11:28:14.373Z,99483.81
2022-10-16T11:30:48.408Z,99469.94
2022-10-16T11:33:32.819Z,99477.59
2022-10-16T11:36:02.140Z,99479.75
2022-10-16T11:38:43.858Z,99478.53
2022-10-16T11:41:33.376Z,99466.56
2022-10-16T11:44:18.610Z,99471.22
2022-10-16T11:46:59.416Z,99455.69
2022-10-16T11:49:38.857Z,99456.34
2022-10-16T11:52:17.677Z,99466.75
2022-10-16T11:55:10.435Z,99461.88
2022-10-16T11:57:52.292Z,99466.81
2022-10-16T12:00:40.041Z,99462.34
2022-10-16T12:03:50.613Z,99458.72
2022-10-16T12:06:47.427Z,99468.09
2022-10-16T12:09:28.685Z,99468.34
2022-10-16T12:11:56.806Z,99473.84
2022-10-16T12:14:42.921Z,99457.66
2022-10-16T12:17:42.933Z,99460.75
2022-10-16T12:20:28.801Z,99465.22
2022-10-16T12:23:03.502Z,99463.75
2022-10-16T12:25:33.740Z,99456.56
2022-10-16T12:28:18.870Z,99464.38
2022-10-16T12:30:54.836Z,99417.97
2022-10-16T12:33:31.348Z,99459.38
2022-10-16T12:36:00.897Z,99456.28
2022-10-16T12:38:46.585Z,99455.25
2022-10-16T12:41:28.939Z,99452.78
2022-10-16T12:43:56.816Z,99463.69
2022-10-16T12:47:07.401Z,99472.69
2022-10-16T12:49:39.753Z,99467.25
2022-10-16T12:52:29.436Z,99467.69
2022-10-16T12:55:01.833Z,99447.44
2022-10-16T12:57:36.889Z,99471.63
2022-10-16T13:00:27.236Z,99463.09
2022-10-16T13:03:31.719Z,99459.44
2022-10-16T13:06:23.481Z,99462.03
2022-10-16T13:09:29.017Z,99464.19
2022-10-16T13:12:11.456Z,99466.88
2022-10-16T13:15:13.369Z,99471.31
2022-10-16T13:18:23.933Z,99481.44
2022-10-16T13:20:53.774Z,99473.91
2022-10-16T13:23:32.661Z,99459.59
2022-10-16T13:26:21.371Z,99470.06
2022-10-16T13:28:48.233Z,99450.50
2022-10-16T13:31:27.234Z,99470.97
2022-10-16T13:33:57.000Z,99471.78
2022-10-16T13:36:26.753Z,99475.63
2022-10-16T13:39:13.121Z,99487.22
2022-10-16T13:41:40.114Z,99475.88
2022-10-16T13:44:21.156Z,99461.44
2022-10-16T13:46:48.036Z,99499.28
2022-10-16T13:49:17.750Z,99494.69
2022-10-16T13:51:58.716Z,99494.50
2022-10-16T13:54:27.009Z,99496.38
2022-10-16T13:57:03.464Z,99492.19
2022-10-16T13:59:39.684Z,99498.69
2022-10-16T14:02:21.347Z,99505.41
2022-10-16T14:04:49.600Z,99496.19
2022-10-16T14:07:26.360Z,99500.16
2022-10-16T14:09:54.427Z,99495.13
2022-10-16T14:12:29.276Z,99499.53
2022-10-16T14:15:01.044Z,99511.34
2022-10-16T14:17:34.065Z,99456.88
2022-10-16T14:20:07.687Z,99482.50
2022-10-16T14:22:42.830Z,99463.59
2022-10-16T14:25:21.747Z,99517.41
2022-10-16T14:28:20.126Z,99472.09
2022-10-16T14:30:58.386Z,99493.56
2022-10-16T14:33:30.184Z,99530.75
2022-10-16T14:36:04.870Z,99477.91
2022-10-16T14:38:33.501Z,99493.78
2022-10-16T14:41:01.654Z,99477.72
2022-10-16T14:43:47.486Z,99528.75
2022-10-16T14:48:50.286Z,99527.78
2022-10-16T14:51:19.047Z,99517.63
2022-10-16T14:53:46.549Z,99464.28
2022-10-16T14:56:20.761Z,99473.94
2022-10-16T14:58:47.699Z,99498.84
2022-10-16T15:01:14.646Z,99491.94
2022-10-16T15:03:41.854Z,99518.41
2022-10-16T15:06:16.711Z,99489.38
2022-10-16T15:08:43.662Z,99474.38
2022-10-16T15:11:16.659Z,99518.50
2022-10-16T15:13:44.132Z,99477.72
2022-10-16T15:16:17.210Z,99481.34
2022-10-16T15:18:44.593Z,99498.66
2022-10-16T15:21:30.184Z,99489.53
2022-10-16T15:24:00.132Z,99547.09
2022-10-16T15:26:29.159Z,99534.25
2022-10-16T15:28:56.679Z,99533.16
2022-10-16T15:31:24.949Z,99569.38
2022-10-16T15:33:59.410Z,99529.34
2022-10-16T15:36:28.513Z,99531.03
2022-10-16T15:38:56.394Z,99537.09
2022-10-16T15:41:24.672Z,99561.31
2022-10-16T15:43:51.979Z,99532.81
2022-10-16T15:46:21.845Z,99540.47
2022-10-16T15:48:57.274Z,99525.38
2022-10-16T15:51:33.522Z,99541.16
2022-10-16T15:54:02.985Z,99586.22
2022-10-16T15:56:31.866Z,99556.41
2022-10-16T15:59:00.043Z,99550.34
2022-10-16T16:01:28.078Z,99536.56
2022-10-16T16:06:40.505Z,99590.84
2022-10-16T16:09:07.459Z,99532.94
2022-10-16T16:11:38.996Z,99566.06
2022-10-16T16:14:16.891Z,99594.66
2022-10-16T16:16:44.017Z,99556.66
2022-10-16T16:19:12.311Z,99545.69
2022-10-16T16:21:39.764Z,99529.16
2022-10-16T16:24:11.286Z,99603.38
2022-10-16T16:26:46.967Z,99567.03
2022-10-16T16:29:18.218Z,99546.53
2022-10-16T16:31:50.362Z,99621.66
2022-10-16T16:34:17.393Z,99625.91
2022-10-16T16:36:47.605Z,99623.88
2022-10-16T16:39:15.729Z,99626.72
2022-10-16T16:41:42.708Z,99601.00
2022-10-16T16:44:12.135Z,99581.38
2022-10-16T16:46:40.895Z,99623.28
2022-10-16T16:49:13.230Z,99581.66
2022-10-16T16:51:41.418Z,99589.25
2022-10-16T16:54:09.493Z,99633.28
2022-10-16T16:56:39.342Z,99638.66
2022-10-16T16:59:06.841Z,99644.25
2022-10-16T17:01:34.330Z,99650.44
2022-10-16T17:04:06.744Z,99609.25
2022-10-16T17:06:41.891Z,99601.91
2022-10-16T17:09:11.381Z,99592.69
2022-10-16T17:11:38.781Z,99618.69
2022-10-16T17:14:10.334Z,99590.13
2022-10-16T17:16:49.476Z,99635.88
2022-10-16T17:19:24.052Z,99669.72
2022-10-16T17:21:55.031Z,99664.78
2022-10-16T17:24:23.137Z,99672.19
2022-10-16T17:26:51.621Z,99630.31
2022-10-16T17:29:19.791Z,99680.75
2022-10-16T17:31:50.837Z,99686.97
2022-10-16T17:34:19.549Z,99677.13
2022-10-16T17:36:51.683Z,99698.72
2022-10-16T17:39:26.749Z,99647.03
2022-10-16T17:41:58.796Z,99692.06
2022-10-16T17:44:29.143Z,99651.00
2022-10-16T17:46:58.425Z,99628.56
2022-10-16T17:49:26.889Z,99699.22
2022-10-16T17:51:58.343Z,99697.13
2022-10-16T17:54:29.795Z,99672.03
2022-10-16T17:57:00.345Z,99714.09
2022-10-16T17:59:30.684Z,99715.63
2022-10-16T18:02:00.436Z,99725.31
2022-10-16T18:04:33.803Z,99716.97
2022-10-16T18:07:02.751Z,99712.91
2022-10-16T18:09:42.540Z,99716.91
2022-10-16T18:12:25.236Z,99731.09
2022-10-16T18:14:59.889Z,99726.59
2022-10-16T18:17:29.394Z,99727.44
2022-10-16T18:19:57.154Z,99728.97
2022-10-16T18:22:25.880Z,99737.72
2022-10-16T18:24:55.282Z,99730.28
2022-10-16T18:27:23.325Z,99734.28
2022-10-16T18:29:57.742Z,99731.34
2022-10-16T18:32:29.387Z,99734.06
2022-10-16T18:34:58.165Z,99730.50
2022-10-16T18:37:26.326Z,99731.78
2022-10-16T18:39:55.895Z,99734.81
2022-10-16T18:42:24.273Z,99735.81
2022-10-16T18:44:52.803Z,99738.19
2022-10-16T18:47:20.963Z,99737.69
2022-10-16T18:49:51.756Z,99730.91
2022-10-16T18:52:19.284Z,99751.00
2022-10-16T18:54:47.015Z,99751.81
2022-10-16T18:57:15.724Z,99761.25
2022-10-16T18:59:44.105Z,99749.94
2022-10-16T19:02:21.790Z,99764.22
2022-10-16T19:04:50.179Z,99759.44
2022-10-16T19:07:19.016Z,99744.13
2022-10-16T19:09:47.290Z,99757.16
2022-10-16T19:12:16.191Z,99772.59
2022-10-16T19:14:49.616Z,99764.66
2022-10-16T19:17:22.156Z,99768.06
2022-10-16T19:19:52.956Z,99767.22
2022-10-16T19:22:33.200Z,99780.38
2022-10-16T19:25:04.325Z,99780.81
2022-10-16T19:27:34.311Z,99787.75
2022-10-16T19:30:02.569Z,99793.00
2022-10-16T19:32:33.076Z,99773.47
2022-10-16T19:35:06.207Z,99787.19
2022-10-16T19:37:34.676Z,99807.03
2022-10-16T19:40:02.890Z,99791.72
2022-10-16T19:42:31.712Z,99812.28
2022-10-16T19:45:02.590Z,99809.88
2022-10-16T19:47:31.536Z,99810.00
2022-10-16T19:50:00.261Z,99785.97
2022-10-16T19:52:37.143Z,99808.06
2022-10-16T19:55:07.306Z,99771.25
2022-10-16T19:57:36.923Z,99804.22
2022-10-16T20:00:08.294Z,99815.69
2022-10-16T20:02:37.241Z,99809.31
2022-10-16T20:05:05.373Z,99829.16
2022-10-16T20:07:34.805Z,99825.03
2022-10-16T20:10:02.336Z,99814.97
2022-10-16T20:12:29.660Z,99819.22
2022-10-16T20:14:57.587Z,99809.75
2022-10-16T20:17:26.029Z,99831.56
2022-10-16T20:19:53.848Z,99839.06
2022-10-16T20:22:21.700Z,99832.41
2022-10-16T20:24:49.197Z,99834.09
2022-10-16T20:27:16.506Z,99832.25
2022-10-16T20:29:43.648Z,99839.47
2022-10-16T20:32:10.888Z,99836.78
2022-10-16T20:37:05.712Z,99851.50
2022-10-16T20:39:32.741Z,99839.63
2022-10-16T20:41:59.622Z,99862.28
2022-10-16T20:44:26.462Z,99843.31
2022-10-16T20:46:57.279Z,99850.81
2022-10-16T20:49:39.432Z,99848.81
2022-10-16T20:52:07.174Z,99850.81
2022-10-16T20:54:34.181Z,99860.03
2022-10-16T20:57:01.059Z,99850.94
2022-10-16T20:59:27.915Z,99857.56
2022-10-16T21:01:54.770Z,99867.75
2022-10-16T21:04:21.554Z,99879.13
2022-10-16T21:06:50.986Z,99845.97
2022-10-16T21:09:18.219Z,99855.31
2022-10-16T21:11:45.038Z,99860.69
2022-10-16T21:14:11.864Z,99852.56
2022-10-16T21:16:38.671Z,99859.25
2022-10-16T21:19:06.635Z,99857.69
2022-10-16T21:21:36.164Z,99864.34
2022-10-16T21:24:03.007Z,99872.44
2022-10-16T21:26:30.569Z,99878.81
2022-10-16T21:29:07.576Z,99869.91
2022-10-16T21:31:35.925Z,99867.75
2022-10-16T21:34:03.142Z,99869.59
2022-10-16T21:36:35.774Z,99875.84
2022-10-16T21:39:09.110Z,99866.63
2022-10-16T21:41:36.957Z,99882.81
2022-10-16T21:44:04.639Z,99879.41
2022-10-16T21:46:34.362Z,99884.50
2022-10-16T21:49:03.288Z,99885.78
2022-10-16T21:51:33.974Z,99876.88
2022-10-16T21:54:01.848Z,99882.97
2022-10-16T21:56:28.869Z,99868.94
2022-10-16T21:58:55.902Z,99884.78
2022-10-16T22:01:24.895Z,99886.50
2022-10-16T22:03:52.054Z,99891.75
2022-10-16T22:08:52.092Z,99872.34
2022-10-16T22:11:23.848Z,99880.13
2022-10-16T22:13:54.267Z,99883.25
2022-10-16T22:16:25.683Z,99881.28
2022-10-16T22:18:54.421Z,99865.41
2022-10-16T22:21:21.573Z,99879.88
2022-10-16T22:23:48.414Z,99857.78
2022-10-16T22:26:15.523Z,99877.47
2022-10-16T22:28:43.077Z,99872.38
2022-10-16T22:31:12.102Z,99885.94
2022-10-16T22:33:39.113Z,99888.34
2022-10-16T22:36:08.933Z,99881.41
2022-10-16T22:38:36.976Z,99880.16
2022-10-16T22:41:06.923Z,99877.03
2022-10-16T22:43:37.655Z,99874.34
2022-10-16T22:46:06.159Z,99878.16
2022-10-16T22:48:32.815Z,99882.00
2022-10-16T22:50:59.767Z,99884.81
2022-10-16T22:53:26.606Z,99890.50
2022-10-16T22:55:53.557Z,99874.34
2022-10-16T22:58:20.306Z,99881.00
2022-10-16T23:03:34.383Z,99863.13
2022-10-16T23:06:04.030Z,99882.00
2022-10-16T23:08:30.744Z,99875.47
2022-10-16T23:11:01.031Z,99884.69
2022-10-16T23:13:28.477Z,99881.41
2022-10-16T23:15:55.230Z,99877.88
2022-10-16T23:18:22.003Z,99879.84
2022-10-16T23:20:48.747Z,99893.19
2022-10-16T23:23:15.387Z,99881.72
2022-10-16T23:25:47.147Z,99880.16
2022-10-16T23:30:47.059Z,99879.31
2022-10-16T23:33:13.820Z,99879.59
2022-10-16T23:35:41.201Z,99881.56
2022-10-16T23:38:07.962Z,99893.06
2022-10-16T23:40:34.694Z,99889.50
2022-10-16T23:43:01.584Z,99889.50
2022-10-16T23:45:28.285Z,99882.97
2022-10-16T23:47:55.067Z,99886.94
2022-10-16T23:50:21.772Z,99875.50
2022-10-16T23:52:48.475Z,99890.94
2022-10-16T23:55:15.234Z,99883.41
2022-10-16T23:57:41.913Z,99892.91
